Time;durP1;ratioP1;P1;durP2;ratioP2;P2;SDS_P1;SDS_P2;PMS_P1;PMS_P2;Temp;Humidity;BMP_temperature;BMP_pressure;BME280_temperature;BME280_humidity;BME280_pressure;Samples;Min_cycle;Max_cycle;Signal;HPM_P1;HPM_P2
2023/09/27 00:00:00;;;;;;;8.07;3.87;;;;;;;15.62;100.00;101586.75;5073009;28;20804;-75
2023/09/27 00:02:27;;;;;;;7.27;4.30;;;;;;;15.59;100.00;101580.00;5073157;28;20442;-75
2023/09/27 00:04:54;;;;;;;6.63;4.10;;;;;;;15.55;100.00;101580.94;5072641;28;20449;-74
2023/09/27 00:07:21;;;;;;;7.60;3.40;;;;;;;15.58;100.00;101580.28;5072743;28;20846;-74
2023/09/27 00:09:48;;;;;;;7.73;4.00;;;;;;;15.53;100.00;101586.69;5072876;28;20932;-74
2023/09/27 00:12:15;;;;;;;7.23;3.83;;;;;;;15.50;100.00;101581.06;5072922;28;20451;-71
2023/09/27 00:14:42;;;;;;;6.20;3.47;;;;;;;15.49;100.00;101584.88;5072858;28;20528;-73
2023/09/27 00:17:10;;;;;;;6.47;3.60;;;;;;;15.46;100.00;101580.88;5072803;28;20537;-73
2023/09/27 00:19:36;;;;;;;6.53;4.00;;;;;;;15.45;100.00;101576.53;5072683;28;20485;-73
2023/09/27 00:22:03;;;;;;;7.60;3.30;;;;;;;15.43;100.00;101577.94;5072719;28;20437;-73
2023/09/27 00:24:30;;;;;;;5.67;3.07;;;;;;;15.39;100.00;101575.81;5075668;28;20441;-73
2023/09/27 00:26:56;;;;;;;6.97;3.40;;;;;;;15.36;100.00;101576.47;5076235;28;20543;-73
2023/09/27 00:29:23;;;;;;;6.70;3.60;;;;;;;15.33;100.00;101577.06;5076189;28;20448;-73
2023/09/27 00:31:49;;;;;;;6.93;3.50;;;;;;;15.30;100.00;101583.13;5076509;28;20465;-73
2023/09/27 00:34:17;;;;;;;5.47;2.63;;;;;;;15.28;100.00;101577.19;5076315;28;20433;-73
2023/09/27 00:36:44;;;;;;;6.50;3.70;;;;;;;15.24;100.00;101572.66;5075955;28;20540;-73
2023/09/27 00:39:11;;;;;;;6.60;3.57;;;;;;;15.20;100.00;101574.38;5075673;28;20484;-73
2023/09/27 00:41:37;;;;;;;4.73;2.97;;;;;;;15.22;100.00;101570.22;5076010;28;20442;-73
2023/09/27 00:44:05;;;;;;;5.37;3.30;;;;;;;15.25;100.00;101579.72;5075958;28;20433;-73
2023/09/27 00:46:32;;;;;;;6.40;3.23;;;;;;;15.20;100.00;101575.19;5075886;28;20553;-73
2023/09/27 00:48:59;;;;;;;6.43;3.00;;;;;;;15.15;100.00;101578.03;5075950;28;20968;-73
2023/09/27 00:51:27;;;;;;;7.63;4.40;;;;;;;15.10;100.00;101572.69;5075866;28;20808;-73
2023/09/27 00:53:56;;;;;;;10.40;3.70;;;;;;;15.10;100.00;101572.69;5075460;28;20531;-73
2023/09/27 00:56:24;;;;;;;5.10;3.00;;;;;;;15.05;100.00;101575.50;5075609;28;20884;-73
2023/09/27 00:58:51;;;;;;;10.10;4.40;;;;;;;15.01;100.00;101569.88;5075601;28;20527;-73
2023/09/27 01:01:18;;;;;;;5.07;3.53;;;;;;;15.01;100.00;101569.88;5076005;28;20858;-73
2023/09/27 01:03:46;;;;;;;6.67;3.70;;;;;;;15.02;100.00;101576.16;5075141;28;20452;-73
2023/09/27 01:06:13;;;;;;;6.07;3.53;;;;;;;14.99;100.00;101582.19;5075359;28;20468;-73
2023/09/27 01:08:41;;;;;;;6.53;3.17;;;;;;;14.97;100.00;101573.53;5075850;28;20457;-73
2023/09/27 01:11:08;;;;;;;6.20;3.50;;;;;;;14.93;100.00;101578.78;5075482;28;20429;-73
2023/09/27 01:13:35;;;;;;;6.63;3.90;;;;;;;14.93;100.00;101567.88;5075598;28;20483;-73
2023/09/27 01:16:01;;;;;;;11.00;4.13;;;;;;;14.91;100.00;101572.00;5075945;28;20464;-73
2023/09/27 01:18:28;;;;;;;7.47;3.63;;;;;;;14.87;100.00;101574.53;5075221;28;20481;-73
2023/09/27 01:20:55;;;;;;;5.57;3.60;;;;;;;14.86;100.00;101567.47;5075253;28;20534;-73
2023/09/27 01:23:23;;;;;;;7.10;4.03;;;;;;;14.83;100.00;101577.09;5075420;28;20440;-73
2023/09/27 01:25:57;;;;;;;8.83;4.13;;;;;;;14.73;100.00;101568.28;5075095;28;20467;-73
2023/09/27 01:28:24;;;;;;;7.90;4.70;;;;;;;14.68;100.00;101571.13;5075312;28;20417;-73
2023/09/27 01:30:51;;;;;;;6.20;3.57;;;;;;;14.60;100.00;101568.00;5074746;28;20433;-73
2023/09/27 01:33:17;;;;;;;7.70;4.37;;;;;;;14.57;100.00;101574.06;5074919;28;20524;-73
2023/09/27 01:35:45;;;;;;;5.30;2.80;;;;;;;14.55;100.00;101572.75;5074651;28;20453;-73
2023/09/27 01:38:13;;;;;;;6.57;3.13;;;;;;;14.51;100.00;101574.47;5074497;28;20607;-73
2023/09/27 01:40:42;;;;;;;14.20;4.40;;;;;;;14.54;100.00;101573.88;5075387;28;20441;-73
2023/09/27 01:43:09;;;;;;;6.23;2.90;;;;;;;14.56;100.00;101579.81;5074787;28;20442;-73
2023/09/27 01:45:36;;;;;;;8.53;4.23;;;;;;;14.52;100.00;101576.06;5074599;28;20445;-73
2023/09/27 01:48:04;;;;;;;6.00;2.80;;;;;;;14.46;100.00;101572.63;5074399;28;20930;-71
2023/09/27 01:50:33;;;;;;;9.03;4.83;;;;;;;14.50;100.00;101570.13;5075232;28;20434;-73
2023/09/27 01:53:00;;;;;;;9.33;3.23;;;;;;;14.51;100.00;101567.09;5075112;28;20532;-73
2023/09/27 01:55:26;;;;;;;7.20;3.60;;;;;;;14.48;100.00;101567.72;5074282;28;20448;-73
2023/09/27 01:57:54;;;;;;;9.00;4.33;;;;;;;14.45;100.00;101553.84;5074516;28;20969;-73
2023/09/27 02:00:21;;;;;;;5.80;3.70;;;;;;;14.41;100.00;101550.91;5074128;28;20507;-73
2023/09/27 02:02:50;;;;;;;6.00;3.30;;;;;;;14.45;100.00;101559.31;5074405;28;20499;-73
2023/09/27 02:05:17;;;;;;;6.80;3.50;;;;;;;14.46;100.00;101555.47;5074345;28;20953;-74
2023/09/27 02:07:44;;;;;;;5.60;3.30;;;;;;;14.45;100.00;101559.31;5073939;28;20822;-74
2023/09/27 02:10:11;;;;;;;9.73;4.63;;;;;;;14.41;100.00;101558.28;5074345;28;20441;-74
2023/09/27 02:12:39;;;;;;;6.13;3.30;;;;;;;14.36;100.00;101560.00;5074215;28;20477;-75
2023/09/27 02:15:08;;;;;;;6.30;3.70;;;;;;;14.34;100.00;101566.84;5074252;28;20469;-74
2023/09/27 02:17:36;;;;;;;9.87;5.17;;;;;;;14.36;100.00;101575.56;5074331;28;20544;-75
2023/09/27 02:20:05;;;;;;;10.70;4.33;;;;;;;14.36;100.00;101579.09;5074043;28;20481;-75
2023/09/27 02:22:32;;;;;;;7.37;3.40;;;;;;;14.29;100.00;101586.84;5074318;28;20503;-75
2023/09/27 02:24:58;;;;;;;5.60;3.70;;;;;;;14.26;100.00;101592.91;5074418;28;20861;-75
2023/09/27 02:27:25;;;;;;;6.20;4.00;;;;;;;14.23;100.00;101589.97;5073977;28;20546;-74
2023/09/27 02:29:51;;;;;;;7.03;3.37;;;;;;;14.19;100.00;101589.75;5073921;28;20442;-74
2023/09/27 02:32:19;;;;;;;6.00;3.03;;;;;;;14.10;100.00;101594.28;5073967;28;20437;-74
2023/09/27 02:34:46;;;;;;;8.57;4.20;;;;;;;14.09;100.00;101592.69;5073879;28;20848;-74
2023/09/27 02:37:15;;;;;;;8.27;3.60;;;;;;;14.11;100.00;101580.34;5073850;28;20465;-74
2023/09/27 02:39:42;;;;;;;5.57;3.10;;;;;;;14.11;100.00;101576.81;5073919;28;20481;-75
2023/09/27 02:42:10;;;;;;;5.80;3.23;;;;;;;14.14;100.00;101587.94;5074126;28;20516;-75
2023/09/27 02:44:36;;;;;;;7.07;3.23;;;;;;;14.14;100.00;101604.28;5074065;28;20463;-74
2023/09/27 02:47:04;;;;;;;6.97;3.70;;;;;;;14.08;100.00;101605.50;5073029;28;20464;-73
2023/09/27 02:49:34;;;;;;;6.73;3.40;;;;;;;14.05;100.00;101587.00;5073676;28;20443;-73
2023/09/27 02:52:01;;;;;;;5.93;3.80;;;;;;;14.06;100.00;101594.06;5073702;28;20513;-73
2023/09/27 02:54:28;;;;;;;6.37;3.20;;;;;;;14.06;100.00;101593.25;5073307;28;20867;-73
2023/09/27 02:56:54;;;;;;;6.87;2.87;;;;;;;14.04;100.00;101596.31;5073572;28;20507;-74
2023/09/27 02:59:21;;;;;;;5.33;3.17;;;;;;;14.01;100.00;101585.19;5074088;28;20588;-74
2023/09/27 03:01:48;;;;;;;7.07;3.73;;;;;;;13.97;100.00;101578.72;5074308;28;20433;-74
2023/09/27 03:04:15;;;;;;;6.50;3.43;;;;;;;13.91;100.00;101574.47;5073292;28;20496;-74
2023/09/27 03:06:44;;;;;;;6.63;3.60;;;;;;;13.94;100.00;101571.94;5073736;28;20462;-74
2023/09/27 03:09:11;;;;;;;6.27;3.40;;;;;;;13.95;100.00;101570.06;5073477;28;20465;-74
2023/09/27 03:11:38;;;;;;;6.00;3.20;;;;;;;13.87;100.00;101560.66;5073480;28;20499;-74
2023/09/27 03:14:05;;;;;;;7.63;4.60;;;;;;;13.85;100.00;101555.47;5073421;28;20503;-74
2023/09/27 03:16:32;;;;;;;7.50;3.40;;;;;;;13.83;100.00;101554.97;5073336;28;20458;-73
2023/09/27 03:18:59;;;;;;;6.20;2.90;;;;;;;13.82;100.00;101550.66;5074014;28;20881;-73
2023/09/27 03:21:26;;;;;;;8.57;4.77;;;;;;;13.84;100.00;101545.69;5073576;28;20441;-73
2023/09/27 03:23:54;;;;;;;8.53;3.73;;;;;;;13.87;100.00;101541.59;5073330;28;20924;-73
2023/09/27 03:26:22;;;;;;;10.97;5.13;;;;;;;13.80;100.00;101543.88;5073234;28;20546;-74
2023/09/27 03:28:49;;;;;;;6.97;3.70;;;;;;;13.72;100.00;101534.47;5073687;28;20433;-74
2023/09/27 03:31:15;;;;;;;9.43;4.93;;;;;;;13.69;100.00;101537.00;5073227;28;20524;-74
2023/09/27 03:33:42;;;;;;;8.30;4.77;;;;;;;13.74;100.00;101542.34;5073968;28;20472;-74
2023/09/27 03:36:08;;;;;;;10.67;4.50;;;;;;;13.74;100.00;101548.59;5073257;28;20531;-74
2023/09/27 03:38:36;;;;;;;10.93;3.97;;;;;;;13.74;100.00;101554.06;5073182;28;20472;-74
2023/09/27 03:41:08;;;;;;;7.27;3.90;;;;;;;13.74;100.00;101564.94;5073465;28;20441;-74
2023/09/27 03:43:34;;;;;;;8.23;4.07;;;;;;;13.68;100.00;101568.03;5073475;28;20418;-74
2023/09/27 03:46:03;;;;;;;6.93;3.60;;;;;;;13.67;100.00;101563.69;5072725;28;20977;-74
2023/09/27 03:48:30;;;;;;;8.70;4.67;;;;;;;13.64;100.00;101562.41;5073166;28;20541;-74
2023/09/27 03:50:57;;;;;;;9.67;4.50;;;;;;;13.64;100.00;101554.22;5073060;28;20524;-74
2023/09/27 03:53:24;;;;;;;6.80;3.20;;;;;;;13.62;100.00;101549.06;5072955;28;20437;-75
2023/09/27 03:55:51;;;;;;;6.60;3.83;;;;;;;13.65;100.00;101549.59;5073279;28;20472;-72
2023/09/27 03:58:19;;;;;;;6.17;3.70;;;;;;;13.64;100.00;101570.56;5075915;28;20469;-74
2023/09/27 04:00:46;;;;;;;8.87;4.13;;;;;;;13.59;100.00;101562.47;5076949;28;20517;-73
2023/09/27 04:03:13;;;;;;;5.87;2.83;;;;;;;13.60;100.00;101558.66;5076711;28;20524;-74
2023/09/27 04:05:39;;;;;;;7.57;4.00;;;;;;;13.62;100.00;101564.59;5076919;28;20484;-74
2023/09/27 04:08:06;;;;;;;7.50;4.20;;;;;;;13.62;100.00;101562.69;5076656;28;20870;-74
2023/09/27 04:10:33;;;;;;;8.23;3.67;;;;;;;13.55;100.00;101570.44;5076765;28;20438;-74
2023/09/27 04:13:00;;;;;;;7.70;4.13;;;;;;;13.58;100.00;101575.25;5076523;28;20863;-74
2023/09/27 04:15:28;;;;;;;6.13;3.63;;;;;;;13.59;100.00;101585.06;5076835;28;20520;-74
2023/09/27 04:17:55;;;;;;;8.43;3.90;;;;;;;13.56;100.00;101595.75;5076357;28;20465;-75
2023/09/27 04:20:22;;;;;;;9.47;4.40;;;;;;;13.48;100.00;101599.13;5076676;28;20588;-76
2023/09/27 04:22:50;;;;;;;10.37;4.93;;;;;;;13.38;100.00;101597.38;5076146;28;20445;-75
2023/09/27 04:25:18;;;;;;;8.67;4.70;;;;;;;13.32;100.00;101610.22;5076333;28;20507;-75
2023/09/27 04:27:49;;;;;;;9.80;4.43;;;;;;;13.23;100.00;101603.81;5075517;28;20477;-75
2023/09/27 04:30:18;;;;;;;7.23;4.37;;;;;;;13.24;100.00;101613.63;5076673;28;20421;-75
2023/09/27 04:32:50;;;;;;;8.20;4.53;;;;;;;13.24;100.00;101619.06;5076169;28;20445;-75
2023/09/27 04:35:17;;;;;;;7.83;4.10;;;;;;;13.20;100.00;101620.72;5076184;28;20426;-75
2023/09/27 04:37:44;;;;;;;6.77;3.37;;;;;;;13.18;100.00;101616.66;5075775;28;20515;-75
2023/09/27 04:40:12;;;;;;;8.43;4.40;;;;;;;13.22;100.00;101610.38;5075772;28;20568;-75
2023/09/27 04:42:38;;;;;;;8.10;4.60;;;;;;;13.22;100.00;101610.38;5075885;28;20969;-75
2023/09/27 04:45:06;;;;;;;8.40;4.63;;;;;;;13.24;100.00;101615.53;5075817;28;20442;-75
2023/09/27 04:47:33;;;;;;;9.20;4.43;;;;;;;13.19;100.00;101613.63;5075379;28;20982;-76
2023/09/27 04:50:01;;;;;;;7.87;4.07;;;;;;;13.22;100.00;101623.13;5075854;28;20438;-72
2023/09/27 04:52:28;;;;;;;8.07;4.67;;;;;;;13.21;100.00;101627.78;5077022;28;20445;-79
2023/09/27 04:54:56;;;;;;;8.33;3.90;;;;;;;13.18;100.00;101625.63;5076442;28;20445;-78
2023/09/27 04:57:23;;;;;;;10.40;4.73;;;;;;;13.23;100.00;101627.50;5076401;28;20535;-78
2023/09/27 04:59:49;;;;;;;7.87;4.40;;;;;;;13.24;100.00;101634.59;5076529;28;20481;-78
2023/09/27 05:02:16;;;;;;;8.33;4.50;;;;;;;13.22;100.00;101629.41;5076593;28;20934;-78
2023/09/27 05:04:43;;;;;;;10.43;4.93;;;;;;;13.18;100.00;101639.22;5076914;28;20954;-76
2023/09/27 05:07:11;;;;;;;9.23;5.07;;;;;;;13.20;100.00;101647.13;5075556;28;20977;-76
2023/09/27 05:09:37;;;;;;;10.27;5.80;;;;;;;13.14;100.00;101644.44;5075220;28;20441;-77
2023/09/27 05:12:04;;;;;;;10.70;5.37;;;;;;;13.14;100.00;101649.88;5075750;28;20529;-76
2023/09/27 05:14:31;;;;;;;10.20;4.90;;;;;;;13.20;100.00;101652.56;5075528;28;20837;-77
2023/09/27 05:16:58;;;;;;;8.77;5.37;;;;;;;13.21;100.00;101660.44;5075503;28;20515;-77
2023/09/27 05:19:24;;;;;;;12.30;5.23;;;;;;;13.18;100.00;101660.19;5075472;28;20571;-77
2023/09/27 05:21:51;;;;;;;10.33;4.67;;;;;;;13.22;100.00;101659.34;5075297;28;20437;-77
2023/09/27 05:24:19;;;;;;;9.93;5.00;;;;;;;13.20;100.00;101661.53;5075464;28;20448;-77
2023/09/27 05:26:46;;;;;;;15.30;5.70;;;;;;;13.11;100.00;101655.13;5075595;28;20493;-77
2023/09/27 05:29:13;;;;;;;11.13;5.57;;;;;;;13.10;100.00;101662.47;5075786;28;20726;-77
2023/09/27 05:31:40;;;;;;;11.80;4.93;;;;;;;13.07;100.00;101665.78;5075317;28;20930;-76
2023/09/27 05:34:07;;;;;;;12.30;5.80;;;;;;;13.06;100.00;101666.06;5075068;28;20899;-75
2023/09/27 05:36:34;;;;;;;12.37;5.90;;;;;;;13.10;100.00;101673.34;5074978;28;20515;-77
2023/09/27 05:39:02;;;;;;;13.30;6.10;;;;;;;13.17;100.00;101673.00;5075062;28;20517;-74
2023/09/27 05:41:30;;;;;;;8.70;5.03;;;;;;;13.23;100.00;101669.13;5075276;28;20485;-75
2023/09/27 05:43:56;;;;;;;11.37;4.93;;;;;;;13.26;100.00;101679.44;5074905;28;20437;-73
2023/09/27 05:46:23;;;;;;;10.20;5.47;;;;;;;13.22;100.00;101681.13;5075214;28;20468;-77
2023/09/27 05:48:49;;;;;;;10.67;6.00;;;;;;;13.21;100.00;101687.63;5075192;28;20512;-78
2023/09/27 05:51:16;;;;;;;8.73;4.50;;;;;;;13.25;100.00;101705.03;5075331;28;20437;-77
2023/09/27 05:53:43;;;;;;;20.07;6.20;;;;;;;13.34;100.00;101705.19;5075928;28;20448;-76
2023/09/27 05:56:09;;;;;;;11.67;4.83;;;;;;;13.36;100.00;101709.22;5075007;28;20492;-77
2023/09/27 05:58:37;;;;;;;10.37;5.63;;;;;;;13.30;100.00;101707.69;5075885;28;20503;-78
2023/09/27 06:01:07;;;;;;;9.97;5.23;;;;;;;13.32;100.00;101715.53;5075894;28;20548;-79
2023/09/27 06:03:37;;;;;;;11.73;4.30;;;;;;;13.41;100.00;101707.53;5090071;22;20456;-71
2023/09/27 06:06:04;;;;;;;9.10;4.57;;;;;;;13.44;100.00;101701.53;5054804;28;20821;-71
2023/09/27 06:08:31;;;;;;;6.30;4.03;;;;;;;13.48;100.00;101714.25;5054926;28;20433;-67
2023/09/27 06:10:59;;;;;;;10.10;4.50;;;;;;;13.44;100.00;101715.94;5054713;28;20465;-67
2023/09/27 06:13:26;;;;;;;8.80;5.30;;;;;;;13.48;100.00;101719.69;5054358;28;20492;-67
2023/09/27 06:15:55;;;;;;;7.20;4.27;;;;;;;13.54;100.00;101715.78;5054960;28;20466;-68
2023/09/27 06:18:22;;;;;;;7.20;4.03;;;;;;;13.63;100.00;101708.63;5054016;28;20474;-68
2023/09/27 06:20:49;;;;;;;9.43;5.20;;;;;;;13.69;100.00;101706.63;5053152;28;20916;-71
2023/09/27 06:23:15;;;;;;;8.80;5.37;;;;;;;13.73;100.00;101710.38;5053904;28;20498;-70
2023/09/27 06:25:43;;;;;;;8.33;4.87;;;;;;;13.85;100.00;101701.75;5054290;28;20517;-72
2023/09/27 06:28:11;;;;;;;9.90;4.23;;;;;;;13.94;100.00;101705.41;5053705;28;20529;-71
2023/09/27 06:30:38;;;;;;;8.03;4.07;;;;;;;13.98;100.00;101708.38;5054079;28;20460;-75
2023/09/27 06:33:08;;;;;;;10.77;5.60;;;;;;;14.06;100.00;101715.88;5054378;28;20453;-73
2023/09/27 06:35:36;;;;;;;8.50;4.50;;;;;;;14.16;100.00;101721.16;5053934;28;20446;-74
2023/09/27 06:38:03;;;;;;;8.40;4.23;;;;;;;14.25;100.00;101724.00;5053947;28;20447;-71
2023/09/27 06:40:30;;;;;;;6.30;3.60;;;;;;;14.34;100.00;101717.59;5053855;28;21028;-71
2023/09/27 06:42:57;;;;;;;10.20;4.20;;;;;;;14.44;100.00;101718.53;5053516;28;20895;-72
2023/09/27 06:45:25;;;;;;;9.10;4.13;;;;;;;14.52;100.00;101718.69;5054166;28;20470;-71
2023/09/27 06:47:51;;;;;;;10.63;4.90;;;;;;;14.58;100.00;101719.41;5053717;28;20458;-71
2023/09/27 06:50:19;;;;;;;7.27;4.23;;;;;;;14.66;100.00;101726.88;5053684;28;20434;-71
2023/09/27 06:52:48;;;;;;;7.37;4.23;;;;;;;14.72;100.00;101722.94;5053354;28;20438;-71
2023/09/27 06:55:16;;;;;;;7.07;3.87;;;;;;;14.81;100.00;101723.88;5053649;28;20496;-71
2023/09/27 06:57:46;;;;;;;10.70;4.90;;;;;;;14.88;100.00;101716.09;5053494;28;20965;-71
2023/09/27 07:00:18;;;;;;;9.30;4.70;;;;;;;14.97;100.00;101721.69;5053857;28;20867;-71
2023/09/27 07:02:47;;;;;;;8.30;4.20;;;;;;;15.06;100.00;101724.50;5053643;28;20505;-71
2023/09/27 07:05:14;;;;;;;7.73;5.10;;;;;;;15.13;100.00;101716.69;5053303;28;20508;-71
2023/09/27 07:07:42;;;;;;;7.27;4.60;;;;;;;15.21;100.00;101723.38;5053729;28;20561;-71
2023/09/27 07:10:10;;;;;;;7.63;3.77;;;;;;;15.28;100.00;101713.69;5053841;28;20518;-72
2023/09/27 07:12:37;;;;;;;6.93;3.50;;;;;;;15.37;100.00;101717.31;5053695;28;20534;-71
2023/09/27 07:15:08;;;;;;;9.33;4.70;;;;;;;15.43;100.00;101718.00;5053083;28;20994;-71
2023/09/27 07:17:36;;;;;;;8.10;4.47;;;;;;;15.53;100.00;101715.03;5053358;28;20485;-71
2023/09/27 07:20:09;;;;;;;10.37;5.43;;;;;;;15.62;100.00;101713.19;5053405;28;21027;-72
2023/09/27 07:22:36;;;;;;;8.10;4.57;;;;;;;15.70;100.00;101706.22;5053504;28;20523;-69
2023/09/27 07:25:12;;;;;;;7.53;4.20;;;;;;;15.78;100.00;101694.56;5053399;28;20861;-71
2023/09/27 07:27:40;;;;;;;9.70;4.97;;;;;;;15.88;100.00;101691.59;5053290;28;20465;-70
2023/09/27 07:30:11;;;;;;;8.03;4.27;;;;;;;16.03;100.00;101689.63;5053459;28;20488;-70
2023/09/27 07:32:39;;;;;;;7.57;4.60;;;;;;;16.23;100.00;101707.44;5055869;28;20441;-71
2023/09/27 07:35:09;;;;;;;9.50;5.80;;;;;;;16.35;100.00;101710.44;5057126;28;20537;-71
2023/09/27 07:37:37;;;;;;;8.50;4.50;;;;;;;16.49;100.00;101715.81;5057315;28;20464;-71
2023/09/27 07:40:09;;;;;;;8.00;4.83;;;;;;;16.65;100.00;101717.03;5056955;28;20438;-71
2023/09/27 07:42:36;;;;;;;8.20;5.43;;;;;;;16.87;100.00;101710.75;5057235;28;20522;-71
2023/09/27 07:45:03;;;;;;;11.63;5.70;;;;;;;17.10;100.00;101708.72;5057326;28;20441;-71
2023/09/27 07:47:30;;;;;;;9.93;5.33;;;;;;;17.28;100.00;101704.91;5057595;28;20575;-71
2023/09/27 07:49:56;;;;;;;11.33;5.57;;;;;;;17.43;100.00;101709.09;5056922;28;20441;-71
2023/09/27 07:52:23;;;;;;;8.43;4.37;;;;;;;17.52;100.00;101720.06;5057198;28;20444;-71
2023/09/27 07:54:51;;;;;;;8.97;5.43;;;;;;;17.60;100.00;101713.81;5057632;28;20474;-71
2023/09/27 07:57:20;;;;;;;7.87;5.27;;;;;;;17.77;100.00;101710.31;5056956;28;20472;-71
2023/09/27 07:59:47;;;;;;;9.77;4.80;;;;;;;17.94;100.00;101715.00;5057149;28;20438;-72
2023/09/27 08:02:14;;;;;;;7.33;5.13;;;;;;;18.07;100.00;101708.53;5056677;28;20925;-71
2023/09/27 08:04:41;;;;;;;9.63;5.00;;;;;;;18.18;100.00;101709.00;5056688;28;20450;-72
2023/09/27 08:07:08;;;;;;;8.70;4.93;;;;;;;18.30;100.00;101707.19;5056266;28;20512;-72
2023/09/27 08:09:38;;;;;;;11.10;5.37;;;;;;;18.35;100.00;101709.78;5057030;28;20448;-69
2023/09/27 08:12:05;;;;;;;9.17;5.47;;;;;;;18.41;100.00;101716.69;5056547;28;20484;-69
2023/09/27 08:14:36;;;;;;;9.50;6.23;;;;;;;18.53;100.00;101715.22;5056541;28;20438;-72
2023/09/27 08:17:03;;;;;;;8.40;5.33;;;;;;;18.63;100.00;101723.88;5056276;28;21033;-70
2023/09/27 08:19:30;;;;;;;10.13;5.43;;;;;;;18.72;100.00;101720.34;5056647;28;20525;-71
2023/09/27 08:21:57;;;;;;;8.57;5.30;;;;;;;18.79;100.00;101715.16;5056347;28;20482;-71
2023/09/27 08:24:23;;;;;;;9.07;5.70;;;;;;;18.86;100.00;101721.75;5056378;28;20442;-73
2023/09/27 08:26:50;;;;;;;8.63;5.57;;;;;;;18.97;100.00;101713.94;5056017;28;20462;-72
2023/09/27 08:29:18;;;;;;;9.00;5.00;;;;;;;19.06;100.00;101720.22;5056304;28;20442;-71
2023/09/27 08:31:46;;;;;;;8.00;4.30;;;;;;;19.16;100.00;101719.03;5055921;28;20442;-70
2023/09/27 08:34:13;;;;;;;9.77;5.40;;;;;;;19.21;100.00;101723.50;5055856;28;20444;-70
2023/09/27 08:36:40;;;;;;;5.60;3.97;;;;;;;19.27;100.00;101714.78;5056391;28;20465;-70
2023/09/27 08:39:06;;;;;;;7.00;4.40;;;;;;;19.35;100.00;101719.41;5056454;28;20438;-70
2023/09/27 08:41:34;;;;;;;8.00;4.37;;;;;;;19.46;100.00;101725.31;5056284;28;20478;-70
2023/09/27 08:44:01;;;;;;;8.00;4.80;;;;;;;19.61;100.00;101718.44;5054871;28;20448;-70
2023/09/27 08:46:33;;;;;;;8.27;4.63;;;;;;;19.73;100.00;101718.53;5056256;28;20454;-70
2023/09/27 08:49:02;;;;;;;7.50;3.90;;;;;;;19.80;100.00;101718.81;5055905;28;20422;-70
2023/09/27 08:51:29;;;;;;;8.47;4.70;;;;;;;19.85;100.00;101715.84;5056195;28;20439;-70
2023/09/27 08:53:56;;;;;;;6.60;4.00;;;;;;;19.92;100.00;101712.53;5055470;28;20445;-70
2023/09/27 08:56:24;;;;;;;11.60;5.67;;;;;;;19.98;100.00;101721.41;5056058;28;20563;-70
2023/09/27 08:58:52;;;;;;;7.77;4.00;;;;;;;20.03;100.00;101713.75;5055723;28;20918;-70
2023/09/27 09:01:19;;;;;;;8.70;4.93;;;;;;;20.11;100.00;101715.63;5055584;28;20500;-70
2023/09/27 09:03:47;;;;;;;9.90;5.47;;;;;;;20.24;98.62;101713.72;5055379;28;20950;-70
2023/09/27 09:06:15;;;;;;;7.17;4.77;;;;;;;20.42;98.50;101714.34;5056054;28;20549;-71
2023/09/27 09:08:43;;;;;;;5.70;3.47;;;;;;;20.54;98.00;101719.06;5055598;28;20435;-71
2023/09/27 09:11:10;;;;;;;6.30;3.73;;;;;;;20.48;96.20;101720.44;5055880;28;20517;-70
2023/09/27 09:13:56;;;;;;;6.37;4.13;;;;;;;20.61;96.00;101716.59;5055706;28;20446;-70
2023/09/27 09:16:23;;;;;;;7.97;4.13;;;;;;;20.68;94.84;101724.28;5055401;28;20462;-71
2023/09/27 09:18:51;;;;;;;8.23;5.10;;;;;;;20.77;94.53;101723.03;5055122;28;20951;-71
2023/09/27 09:21:20;;;;;;;7.43;3.97;;;;;;;20.96;93.03;101710.66;5055320;28;20855;-71
2023/09/27 09:23:49;;;;;;;6.50;4.07;;;;;;;21.07;92.06;101706.28;5055419;28;20438;-71
2023/09/27 09:26:28;;;;;;;9.10;4.50;;;;;;;21.20;92.66;101701.56;5055591;28;20498;-70
2023/09/27 09:28:56;;;;;;;6.90;4.93;;;;;;;21.35;92.04;101692.63;5056016;28;20778;-71
2023/09/27 09:31:23;;;;;;;6.03;3.53;;;;;;;21.44;91.21;101696.06;5054925;28;20513;-71
2023/09/27 09:34:04;;;;;;;7.17;4.07;;;;;;;21.58;89.98;101698.44;5055474;28;20466;-70
2023/09/27 09:36:32;;;;;;;7.23;4.40;;;;;;;21.82;87.76;101701.09;5055296;28;20462;-70
2023/09/27 09:39:06;;;;;;;5.60;3.60;;;;;;;21.92;87.42;101700.63;5054728;28;20537;-70
2023/09/27 09:41:57;;;;;;;7.70;4.20;;;;;;;21.97;86.12;101696.81;5055178;28;20573;-71
2023/09/27 09:44:25;;;;;;;8.00;4.30;;;;;;;22.12;85.16;101687.00;5050345;28;20474;-71
2023/09/27 09:46:52;;;;;;;9.20;4.40;;;;;;;22.27;84.84;101686.25;5055119;28;20525;-71
2023/09/27 09:49:21;;;;;;;6.20;4.30;;;;;;;22.39;84.55;101683.38;5055170;28;20438;-71
2023/09/27 09:51:52;;;;;;;8.37;3.73;;;;;;;22.44;85.83;101678.75;5055046;28;20438;-71
2023/09/27 09:54:29;;;;;;;6.30;3.60;;;;;;;22.52;84.72;101678.59;5054566;28;20983;-71
2023/09/27 09:56:58;;;;;;;4.80;3.10;;;;;;;22.59;83.02;101672.47;5054637;28;20481;-71
2023/09/27 09:59:33;;;;;;;6.47;3.10;;;;;;;22.72;82.37;101675.94;5054256;28;20438;-70
2023/09/27 10:02:05;;;;;;;4.00;2.57;;;;;;;22.72;81.99;101662.91;5054615;28;20497;-69
2023/09/27 10:04:33;;;;;;;4.77;2.67;;;;;;;22.77;81.63;101668.16;5054102;28;20450;-70
2023/09/27 10:07:02;;;;;;;3.67;2.33;;;;;;;22.80;82.54;101666.63;5054405;28;20459;-70
2023/09/27 10:09:29;;;;;;;5.20;2.97;;;;;;;22.86;80.99;101667.97;5054111;28;20447;-70
2023/09/27 10:11:56;;;;;;;3.93;2.30;;;;;;;22.98;77.86;101664.34;5054281;28;20486;-70
2023/09/27 10:14:23;;;;;;;5.20;2.93;;;;;;;23.16;78.15;101660.81;5054349;28;20461;-70
2023/09/27 10:16:50;;;;;;;6.37;2.93;;;;;;;23.23;79.42;101656.59;5053912;28;20817;-69
2023/09/27 10:19:27;;;;;;;6.37;3.07;;;;;;;23.27;80.32;101663.81;5054405;28;20445;-69
2023/09/27 10:22:05;;;;;;;7.50;2.90;;;;;;;23.34;80.09;101663.19;5054190;28;20974;-69
2023/09/27 10:24:34;;;;;;;6.13;2.97;;;;;;;23.39;78.76;101655.41;5054458;28;20517;-69
2023/09/27 10:27:01;;;;;;;4.10;2.63;;;;;;;23.53;75.64;101654.91;5054030;28;20552;-70
2023/09/27 10:29:29;;;;;;;4.70;2.70;;;;;;;23.73;74.21;101658.50;5054115;28;20814;-69
2023/09/27 10:32:23;;;;;;;4.40;2.70;;;;;;;23.96;74.94;101655.78;5053930;28;20443;-70
2023/09/27 10:34:49;;;;;;;6.83;3.00;;;;;;;24.15;74.95;101647.44;5054020;28;20434;-69
2023/09/27 10:37:56;;;;;;;8.90;3.60;;;;;;;24.17;72.83;101649.81;5053569;28;20470;-69
2023/09/27 10:40:23;;;;;;;5.40;2.77;;;;;;;24.25;73.61;101639.69;5053980;28;20423;-71
2023/09/27 10:42:50;;;;;;;3.90;2.60;;;;;;;24.42;72.60;101647.53;5053617;28;20490;-69
2023/09/27 10:45:17;;;;;;;5.30;2.50;;;;;;;24.60;72.63;101643.09;5053485;28;20854;-70
2023/09/27 10:47:45;;;;;;;4.47;2.43;;;;;;;24.73;73.03;101640.13;5053320;28;20970;-69
2023/09/27 10:50:12;;;;;;;5.10;2.30;;;;;;;24.88;70.32;101639.16;5053827;28;20933;-69
2023/09/27 10:52:40;;;;;;;3.87;2.43;;;;;;;25.01;71.06;101631.44;5053355;28;20936;-69
2023/09/27 10:55:14;;;;;;;3.90;2.40;;;;;;;25.13;69.07;101639.56;5053787;28;20434;-69
2023/09/27 10:57:42;;;;;;;5.70;1.90;;;;;;;25.27;69.13;101633.41;5053917;28;20466;-70
2023/09/27 11:00:11;;;;;;;4.67;2.50;;;;;;;25.40;69.01;101632.00;5053315;28;20438;-71
2023/09/27 11:02:38;;;;;;;4.33;2.00;;;;;;;25.51;63.39;101632.16;5053509;28;20485;-69
2023/09/27 11:05:06;;;;;;;5.23;2.33;;;;;;;25.60;64.02;101629.88;5053483;28;20451;-71
2023/09/27 11:07:47;;;;;;;5.03;2.60;;;;;;;25.99;64.48;101626.75;5052595;28;21000;-72
2023/09/27 11:10:32;;;;;;;4.30;1.97;;;;;;;26.61;60.71;101632.50;5053636;28;20485;-71
2023/09/27 11:13:07;;;;;;;3.77;1.90;;;;;;;27.42;59.19;101637.78;5053751;28;20497;-72
2023/09/27 11:15:33;;;;;;;4.93;2.80;;;;;;;28.46;55.69;101637.25;5053732;28;20441;-72
2023/09/27 11:18:00;;;;;;;4.50;2.50;;;;;;;29.58;54.70;101650.59;5053008;28;20454;-72
2023/09/27 11:20:27;;;;;;;3.77;2.07;;;;;;;30.33;49.41;101650.16;5053517;28;20452;-72